createdAt,value
2019-04-27T00:01:13.646Z,11.14
2019-04-27T00:03:50.440Z,11.09
2019-04-27T00:06:19.560Z,11.04
2019-04-27T00:08:54.640Z,10.99
2019-04-27T00:11:42.207Z,10.94
2019-04-27T00:14:15.052Z,10.90
2019-04-27T00:17:07.007Z,10.90
2019-04-27T00:20:07.373Z,10.90
2019-04-27T00:22:47.560Z,10.85
2019-04-27T00:25:16.638Z,10.84
2019-04-27T00:27:45.616Z,10.83
2019-04-27T00:30:15.411Z,10.81
2019-04-27T00:32:44.485Z,10.79
2019-04-27T00:35:16.657Z,10.78
2019-04-27T00:37:53.606Z,10.79
2019-04-27T00:40:41.679Z,10.78
2019-04-27T00:43:10.786Z,10.78
2019-04-27T00:45:39.858Z,10.76
2019-04-27T00:48:08.921Z,10.79
2019-04-27T00:50:38.013Z,10.77
2019-04-27T00:53:07.074Z,10.74
2019-04-27T00:55:37.724Z,10.73
2019-04-27T00:58:18.128Z,10.71
2019-04-27T01:01:05.132Z,10.70
2019-04-27T01:03:56.240Z,10.68
2019-04-27T01:06:25.328Z,10.67
2019-04-27T01:08:54.388Z,10.64
2019-04-27T01:11:24.959Z,10.66
2019-04-27T01:13:54.016Z,10.68
2019-04-27T01:16:24.215Z,10.69
2019-04-27T01:18:53.552Z,10.70
2019-04-27T01:21:22.630Z,10.70
2019-04-27T01:23:51.696Z,10.73
2019-04-27T01:26:55.247Z,10.73
2019-04-27T01:29:26.283Z,10.73
2019-04-27T01:31:55.661Z,10.70
2019-04-27T01:34:24.722Z,10.67
2019-04-27T01:36:53.731Z,10.65
2019-04-27T01:39:22.964Z,10.64
2019-04-27T01:41:52.046Z,10.62
2019-04-27T01:44:21.104Z,10.61
2019-04-27T01:46:50.187Z,10.59
2019-04-27T01:49:19.499Z,10.63
2019-04-27T01:51:49.245Z,10.66
2019-04-27T01:54:20.088Z,10.69
2019-04-27T01:56:49.368Z,10.69
2019-04-27T01:59:19.906Z,10.70
2019-04-27T02:02:08.778Z,10.71
2019-04-27T02:04:49.315Z,10.73
2019-04-27T02:07:19.203Z,10.75
2019-04-27T02:09:48.721Z,10.77
2019-04-27T02:12:19.249Z,10.80
2019-04-27T02:14:49.134Z,10.81
2019-04-27T02:17:18.799Z,10.83
2019-04-27T02:19:49.386Z,10.85
2019-04-27T02:22:18.814Z,10.87
2019-04-27T02:24:49.254Z,10.88
2019-04-27T02:27:20.600Z,10.89
2019-04-27T02:30:07.598Z,10.90
2019-04-27T02:32:59.322Z,10.91
2019-04-27T02:35:30.047Z,10.88
2019-04-27T02:38:00.479Z,10.87
2019-04-27T02:41:06.236Z,10.87
2019-04-27T02:44:09.817Z,10.85
2019-04-27T02:46:39.614Z,10.86
2019-04-27T02:49:10.554Z,10.84
2019-04-27T02:51:46.577Z,10.83
2019-04-27T02:54:15.633Z,10.81
2019-04-27T02:56:44.682Z,10.81
2019-04-27T02:59:13.778Z,10.80
2019-04-27T03:01:50.291Z,10.78
2019-04-27T03:04:20.579Z,10.76
2019-04-27T03:06:50.131Z,10.71
2019-04-27T03:09:20.520Z,10.65
2019-04-27T03:11:50.188Z,10.65
2019-04-27T03:14:56.615Z,10.63
2019-04-27T03:17:31.277Z,10.65
2019-04-27T03:20:14.941Z,10.65
2019-04-27T03:22:55.674Z,10.63
2019-04-27T03:25:34.664Z,10.63
2019-04-27T03:28:07.443Z,10.61
2019-04-27T03:30:36.757Z,10.62
2019-04-27T03:33:05.897Z,10.62
2019-04-27T03:35:36.692Z,10.63
2019-04-27T03:38:05.773Z,10.62
2019-04-27T03:40:35.226Z,10.61
2019-04-27T03:43:12.604Z,10.59
2019-04-27T03:45:41.685Z,10.57
2019-04-27T03:48:10.745Z,10.55
2019-04-27T03:51:02.651Z,10.55
2019-04-27T03:53:36.300Z,10.55
2019-04-27T03:56:19.974Z,10.51
2019-04-27T03:58:52.354Z,10.51
2019-04-27T04:01:21.414Z,10.49
2019-04-27T04:03:50.526Z,10.50
2019-04-27T04:06:19.647Z,10.48
2019-04-27T04:08:50.257Z,10.48
2019-04-27T04:11:25.312Z,10.47
2019-04-27T04:19:19.711Z,10.47
2019-04-27T04:21:50.390Z,10.46
2019-04-27T04:24:20.095Z,10.46
2019-04-27T04:26:50.303Z,10.46
2019-04-27T04:29:20.427Z,10.48
2019-04-27T04:31:50.390Z,10.48
2019-04-27T04:34:20.098Z,10.49
2019-04-27T04:36:52.469Z,10.51
2019-04-27T04:39:21.575Z,10.51
2019-04-27T04:42:05.919Z,10.50
2019-04-27T04:44:50.319Z,10.49
2019-04-27T04:47:40.761Z,10.51
2019-04-27T04:50:14.756Z,10.51
2019-04-27T04:52:42.441Z,10.52
2019-04-27T04:55:11.134Z,10.52
2019-04-27T04:57:40.246Z,10.52
2019-04-27T05:00:10.052Z,10.52
2019-04-27T05:02:39.811Z,10.51
2019-04-27T05:05:09.510Z,10.50
2019-04-27T05:07:38.902Z,10.48
2019-04-27T05:10:09.074Z,10.47
2019-04-27T05:12:38.776Z,10.47
2019-04-27T05:15:09.109Z,10.47
2019-04-27T05:17:39.928Z,10.45
2019-04-27T05:20:29.449Z,10.45
2019-04-27T05:22:59.433Z,10.44
2019-04-27T05:25:28.787Z,10.44
2019-04-27T05:27:59.563Z,10.45
2019-04-27T05:30:28.865Z,10.43
2019-04-27T05:32:58.563Z,10.40
2019-04-27T05:35:29.663Z,10.39
2019-04-27T05:38:02.526Z,10.40
2019-04-27T05:40:31.173Z,10.38
2019-04-27T05:43:00.353Z,10.38
2019-04-27T05:46:35.741Z,10.37
2019-04-27T05:49:07.135Z,10.39
2019-04-27T05:51:38.169Z,10.44
2019-04-27T05:54:09.023Z,10.44
2019-04-27T05:56:39.073Z,10.45
2019-04-27T05:59:09.154Z,10.45
2019-04-27T06:01:39.080Z,10.46
2019-04-27T06:04:09.024Z,10.45
2019-04-27T06:06:39.879Z,10.48
2019-04-27T06:09:09.608Z,10.54
2019-04-27T06:11:39.955Z,10.57
2019-04-27T06:14:09.771Z,10.60
2019-04-27T06:16:39.438Z,10.64
2019-04-27T06:19:09.620Z,10.68
2019-04-27T06:21:40.105Z,10.71
2019-04-27T06:24:09.409Z,10.74
2019-04-27T06:26:39.917Z,10.79
2019-04-27T06:29:09.574Z,10.83
2019-04-27T06:31:39.693Z,10.86
2019-04-27T06:34:09.809Z,10.90
2019-04-27T06:36:39.130Z,10.91
2019-04-27T06:39:09.773Z,10.95
2019-04-27T06:41:40.073Z,10.97
2019-04-27T06:44:11.293Z,11.01
2019-04-27T06:46:40.567Z,11.04
2019-04-27T06:49:11.131Z,11.10
2019-04-27T06:51:40.436Z,11.15
2019-04-27T06:54:09.534Z,11.18
2019-04-27T06:56:39.038Z,11.18
2019-04-27T06:59:08.721Z,11.21
2019-04-27T07:01:38.980Z,11.25
2019-04-27T07:04:08.829Z,11.30
2019-04-27T07:06:52.838Z,11.34
2019-04-27T07:09:10.845Z,11.41
2019-04-27T07:11:40.044Z,11.48
2019-04-27T07:14:11.533Z,11.53
2019-04-27T07:16:40.265Z,11.58
2019-04-27T07:19:09.562Z,11.63
2019-04-27T07:21:39.971Z,11.69
2019-04-27T07:24:09.220Z,11.72
2019-04-27T07:26:39.052Z,11.78
2019-04-27T07:29:09.576Z,11.82
2019-04-27T07:31:40.104Z,11.87
2019-04-27T07:34:09.553Z,11.93
2019-04-27T07:36:39.293Z,12.01
2019-04-27T07:39:11.501Z,12.04
2019-04-27T07:41:40.248Z,12.11
2019-04-27T07:44:14.850Z,12.19
2019-04-27T07:46:43.936Z,12.27
2019-04-27T07:49:13.036Z,12.33
2019-04-27T07:51:42.112Z,12.40
2019-04-27T07:54:11.223Z,12.48
2019-04-27T07:56:40.309Z,12.52
2019-04-27T07:59:09.416Z,12.61
2019-04-27T08:01:39.304Z,12.68
2019-04-27T08:04:09.171Z,12.78
2019-04-27T08:06:38.752Z,12.89
2019-04-27T08:09:09.415Z,12.98
2019-04-27T08:11:39.197Z,13.05
2019-04-27T08:14:08.845Z,13.16
2019-04-27T08:16:38.794Z,13.24
2019-04-27T08:19:09.941Z,13.31
2019-04-27T08:21:44.282Z,13.41
2019-04-27T08:24:11.229Z,13.51
2019-04-27T08:26:50.964Z,13.59
2019-04-27T08:29:45.115Z,13.70
2019-04-27T08:32:17.069Z,13.82
2019-04-27T08:34:46.187Z,13.95
2019-04-27T08:37:15.277Z,14.03
2019-04-27T08:39:44.403Z,14.12
2019-04-27T08:42:13.498Z,14.18
2019-04-27T08:44:42.610Z,14.24
2019-04-27T08:47:11.697Z,14.27
2019-04-27T08:49:40.774Z,14.30
2019-04-27T08:52:09.872Z,14.37
2019-04-27T08:54:39.535Z,14.49
2019-04-27T08:57:09.679Z,14.59
2019-04-27T08:59:39.422Z,14.72
2019-04-27T09:02:08.875Z,14.82
2019-04-27T09:04:39.435Z,14.88
2019-04-27T09:07:26.696Z,14.95
2019-04-27T09:09:59.907Z,15.05
2019-04-27T09:12:53.440Z,15.15
2019-04-27T09:15:44.179Z,15.24
2019-04-27T09:18:14.908Z,15.36
2019-04-27T09:20:50.097Z,15.47
2019-04-27T09:23:19.156Z,15.64
2019-04-27T09:25:49.602Z,15.76
2019-04-27T09:28:20.278Z,15.83
2019-04-27T09:30:49.877Z,15.93
2019-04-27T09:33:22.176Z,15.99
2019-04-27T09:35:50.466Z,16.03
2019-04-27T09:38:19.543Z,16.07
2019-04-27T09:40:48.643Z,16.15
2019-04-27T09:43:17.726Z,16.21
2019-04-27T09:45:47.247Z,16.23
2019-04-27T09:48:17.640Z,16.30
2019-04-27T09:50:46.754Z,16.39
2019-04-27T09:53:15.912Z,16.45
2019-04-27T09:55:46.775Z,16.50
2019-04-27T09:58:16.024Z,16.58
2019-04-27T10:00:48.227Z,16.67
2019-04-27T10:03:17.317Z,16.74
2019-04-27T10:05:46.402Z,16.76
2019-04-27T10:08:16.983Z,16.82
2019-04-27T10:10:47.949Z,16.82
2019-04-27T10:13:17.233Z,16.82
2019-04-27T10:15:46.295Z,16.85
2019-04-27T10:18:16.311Z,16.85
2019-04-27T10:20:56.959Z,16.85
2019-04-27T10:23:16.364Z,16.92
2019-04-27T10:25:45.839Z,16.98
2019-04-27T10:28:14.990Z,17.04
2019-04-27T10:30:45.726Z,17.09
2019-04-27T10:33:16.105Z,17.08
2019-04-27T10:35:47.241Z,17.17
2019-04-27T10:38:17.325Z,17.28
2019-04-27T10:40:46.535Z,17.33
2019-04-27T10:43:15.762Z,17.38
2019-04-27T10:45:46.247Z,17.33
2019-04-27T10:48:16.373Z,17.36
2019-04-27T10:50:46.755Z,17.45
2019-04-27T10:53:16.826Z,17.53
2019-04-27T10:55:46.396Z,17.63
2019-04-27T10:58:15.722Z,17.76
2019-04-27T11:00:49.563Z,17.80
2019-04-27T11:03:22.673Z,17.87
2019-04-27T11:06:22.895Z,17.99
2019-04-27T11:08:51.985Z,18.13
2019-04-27T11:11:21.049Z,18.30
2019-04-27T11:13:50.139Z,18.49
2019-04-27T11:16:19.221Z,18.64
2019-04-27T11:18:48.326Z,18.65
2019-04-27T11:21:17.377Z,18.66
2019-04-27T11:23:46.461Z,18.74
2019-04-27T11:26:16.055Z,18.86
2019-04-27T11:28:46.295Z,18.91
2019-04-27T11:31:17.224Z,19.10
2019-04-27T11:33:46.542Z,19.29
2019-04-27T11:36:33.433Z,19.57
2019-04-27T11:39:04.612Z,19.74
2019-04-27T11:41:33.695Z,19.75
2019-04-27T11:44:02.773Z,19.81
2019-04-27T11:46:31.827Z,19.87
2019-04-27T11:49:00.960Z,19.97
2019-04-27T11:51:30.027Z,19.97
2019-04-27T11:53:59.133Z,19.94
2019-04-27T11:56:28.185Z,19.92
2019-04-27T11:58:57.282Z,20.05
2019-04-27T12:01:27.060Z,20.14
2019-04-27T12:03:56.132Z,20.35
2019-04-27T12:06:25.840Z,20.49
2019-04-27T12:08:55.045Z,20.58
2019-04-27T12:11:26.005Z,20.59
2019-04-27T12:13:56.167Z,20.65
2019-04-27T12:16:26.205Z,20.52
2019-04-27T12:18:56.336Z,20.41
2019-04-27T12:21:25.594Z,20.37
2019-04-27T12:23:54.681Z,20.35
2019-04-27T12:26:45.545Z,20.32
2019-04-27T12:29:17.479Z,20.25
2019-04-27T12:31:49.007Z,20.12
2019-04-27T12:34:17.291Z,20.05
2019-04-27T12:36:46.364Z,20.14
2019-04-27T12:39:15.693Z,20.22
2019-04-27T12:41:46.215Z,20.22
2019-04-27T12:44:16.050Z,20.18
2019-04-27T12:46:45.117Z,20.20
2019-04-27T12:49:16.023Z,20.23
2019-04-27T12:51:45.630Z,20.20
2019-04-27T12:54:39.678Z,20.08
2019-04-27T12:57:21.032Z,19.94
2019-04-27T12:59:59.477Z,19.80
2019-04-27T13:02:31.306Z,19.76
2019-04-27T13:05:00.379Z,19.69
2019-04-27T13:07:29.447Z,19.59
2019-04-27T13:09:58.560Z,19.60
2019-04-27T13:12:27.661Z,19.58
2019-04-27T13:14:56.756Z,19.53
2019-04-27T13:17:26.532Z,19.42
2019-04-27T13:19:56.144Z,19.39
2019-04-27T13:22:25.324Z,19.25
2019-04-27T13:24:56.458Z,19.20
2019-04-27T13:27:26.866Z,19.11
2019-04-27T13:29:57.401Z,19.00
2019-04-27T13:32:26.662Z,18.94
2019-04-27T13:34:56.694Z,18.82
2019-04-27T13:37:43.016Z,18.67
2019-04-27T13:40:16.840Z,18.52
2019-04-27T13:42:58.562Z,18.47
2019-04-27T13:45:37.420Z,18.26
2019-04-27T13:48:40.650Z,18.13
2019-04-27T13:51:12.808Z,18.05
2019-04-27T13:53:41.870Z,17.97
2019-04-27T13:56:17.565Z,17.96
2019-04-27T13:58:46.733Z,17.86
2019-04-27T14:01:15.806Z,17.78
2019-04-27T14:03:45.212Z,17.67
2019-04-27T14:06:14.341Z,17.56
2019-04-27T14:08:43.411Z,17.42
2019-04-27T14:11:12.492Z,17.23
2019-04-27T14:13:41.549Z,17.17
2019-04-27T14:16:10.653Z,17.07
2019-04-27T14:18:39.729Z,16.98
2019-04-27T14:21:09.426Z,16.91
2019-04-27T14:23:38.764Z,16.94
2019-04-27T14:26:08.801Z,17.08
2019-04-27T14:28:38.066Z,17.23
2019-04-27T14:31:08.885Z,17.33
2019-04-27T14:33:39.738Z,17.44
2019-04-27T14:36:08.999Z,17.43
2019-04-27T14:38:38.066Z,17.45
2019-04-27T14:41:09.053Z,17.41
2019-04-27T14:43:38.303Z,17.32
2019-04-27T14:46:08.153Z,17.20
2019-04-27T14:48:39.195Z,17.13
2019-04-27T14:51:09.286Z,17.12
2019-04-27T14:53:38.653Z,17.08
2019-04-27T14:56:08.860Z,17.10
2019-04-27T14:58:38.014Z,17.05
2019-04-27T15:01:08.221Z,17.07
2019-04-27T15:03:37.343Z,17.05
2019-04-27T15:06:06.407Z,17.06
2019-04-27T15:08:38.413Z,17.05
2019-04-27T15:11:10.491Z,17.08
2019-04-27T15:13:37.974Z,17.04
2019-04-27T15:16:08.338Z,17.05
2019-04-27T15:18:43.664Z,17.03
2019-04-27T15:21:12.458Z,16.99
2019-04-27T15:23:41.547Z,16.88
2019-04-27T15:26:10.628Z,16.77
2019-04-27T15:28:44.835Z,16.63
2019-04-27T15:31:29.458Z,16.51
2019-04-27T15:34:17.676Z,16.38
2019-04-27T15:37:18.295Z,16.28
2019-04-27T15:40:11.374Z,16.03
2019-04-27T15:42:51.230Z,15.78
2019-04-27T15:45:15.952Z,15.54
2019-04-27T15:47:49.286Z,15.25
2019-04-27T15:50:18.243Z,15.03
2019-04-27T15:52:48.744Z,14.73
2019-04-27T15:55:31.656Z,14.61
2019-04-27T15:57:50.339Z,14.51
2019-04-27T16:00:28.834Z,14.46
2019-04-27T16:02:57.961Z,14.33
2019-04-27T16:05:28.722Z,14.17
2019-04-27T16:07:59.215Z,14.07
2019-04-27T16:10:32.940Z,14.00
2019-04-27T16:13:06.368Z,13.96
2019-04-27T16:15:31.229Z,13.97
2019-04-27T16:18:00.336Z,14.00
2019-04-27T16:20:33.786Z,14.02
2019-04-27T16:23:03.189Z,13.99
2019-04-27T16:25:32.776Z,14.00
2019-04-27T16:28:04.723Z,14.06
2019-04-27T16:30:32.648Z,14.09
2019-04-27T16:33:01.741Z,14.14
2019-04-27T16:35:30.825Z,14.16
2019-04-27T16:38:09.716Z,14.13
2019-04-27T16:40:39.004Z,14.14
2019-04-27T16:43:08.995Z,14.17
2019-04-27T16:45:38.781Z,14.14
2019-04-27T16:48:09.157Z,14.17
2019-04-27T16:50:39.050Z,14.15
2019-04-27T16:53:10.713Z,14.13
2019-04-27T16:55:39.121Z,14.13
2019-04-27T16:58:09.684Z,14.11
2019-04-27T17:00:40.930Z,14.01
2019-04-27T17:03:10.057Z,13.95
2019-04-27T17:05:39.193Z,13.86
2019-04-27T17:08:14.391Z,13.83
2019-04-27T17:10:39.201Z,13.81
2019-04-27T17:13:13.395Z,13.80
2019-04-27T17:16:05.802Z,13.80
2019-04-27T17:18:42.411Z,13.78
2019-04-27T17:21:18.860Z,13.76
2019-04-27T17:23:42.514Z,13.77
2019-04-27T17:26:21.241Z,13.78
2019-04-27T17:28:50.570Z,13.79
2019-04-27T17:31:21.510Z,13.79
2019-04-27T17:33:55.782Z,13.78
2019-04-27T17:36:24.872Z,13.77
2019-04-27T17:38:53.943Z,13.76
2019-04-27T17:41:23.046Z,13.75
2019-04-27T17:43:52.155Z,13.68
2019-04-27T17:46:22.039Z,13.61
2019-04-27T17:48:51.250Z,13.54
2019-04-27T17:51:20.358Z,13.45
2019-04-27T17:53:49.990Z,13.38
2019-04-27T17:56:19.323Z,13.32
2019-04-27T17:58:48.754Z,13.25
2019-04-27T18:01:19.095Z,13.17
2019-04-27T18:03:58.512Z,13.09
2019-04-27T18:06:24.370Z,12.99
2019-04-27T18:08:54.978Z,12.95
2019-04-27T18:11:21.681Z,12.87
2019-04-27T18:13:51.242Z,12.81
2019-04-27T18:16:23.724Z,12.81
2019-04-27T18:19:00.094Z,12.80
2019-04-27T18:21:33.940Z,12.81
2019-04-27T18:24:08.669Z,12.78
2019-04-27T18:27:02.980Z,12.78
2019-04-27T18:29:30.803Z,12.79
2019-04-27T18:31:58.504Z,12.81
2019-04-27T18:34:28.627Z,12.82
2019-04-27T18:36:57.846Z,12.83
2019-04-27T18:39:26.919Z,12.82
2019-04-27T18:41:55.943Z,12.84
2019-04-27T18:44:29.267Z,12.86
2019-04-27T18:46:58.858Z,12.87
2019-04-27T18:49:45.616Z,12.87
2019-04-27T18:52:40.866Z,12.87
2019-04-27T18:55:10.962Z,12.84
2019-04-27T18:57:38.690Z,12.83
2019-04-27T19:00:11.085Z,12.82
2019-04-27T19:02:40.181Z,12.83
2019-04-27T19:05:09.558Z,12.82
2019-04-27T19:07:38.655Z,12.78
2019-04-27T19:10:09.061Z,12.70
2019-04-27T19:12:39.433Z,12.57
2019-04-27T19:15:08.765Z,12.31
2019-04-27T19:17:38.677Z,12.11
2019-04-27T19:20:10.489Z,11.87
2019-04-27T19:22:39.146Z,11.71
2019-04-27T19:25:10.791Z,11.58
2019-04-27T19:27:52.571Z,11.48
2019-04-27T19:30:28.771Z,11.40
2019-04-27T19:32:57.874Z,11.34
2019-04-27T19:35:28.669Z,11.28
2019-04-27T19:37:58.966Z,11.23
2019-04-27T19:40:29.055Z,11.13
2019-04-27T19:42:58.834Z,11.06
2019-04-27T19:45:29.205Z,10.99
2019-04-27T19:47:58.475Z,10.96
2019-04-27T19:50:28.565Z,10.92
2019-04-27T19:52:58.720Z,10.88
2019-04-27T19:55:28.264Z,10.87
2019-04-27T19:57:59.451Z,10.83
2019-04-27T20:00:45.727Z,10.78
2019-04-27T20:03:19.288Z,10.73
2019-04-27T20:05:48.549Z,10.69
2019-04-27T20:08:21.519Z,10.65
2019-04-27T20:10:50.527Z,10.61
2019-04-27T20:13:19.610Z,10.57
2019-04-27T20:15:48.682Z,10.57
2019-04-27T20:18:17.778Z,10.55
2019-04-27T20:20:46.844Z,10.51
2019-04-27T20:23:15.930Z,10.46
2019-04-27T20:25:44.996Z,10.43
2019-04-27T20:28:14.080Z,10.41
2019-04-27T20:30:43.175Z,10.42
2019-04-27T20:33:12.267Z,10.39
2019-04-27T20:35:42.682Z,10.36
2019-04-27T20:38:12.915Z,10.30
2019-04-27T20:40:42.079Z,10.23
2019-04-27T20:43:11.171Z,10.20
2019-04-27T20:45:41.359Z,10.19
2019-04-27T20:48:11.215Z,10.19
2019-04-27T20:50:41.218Z,10.19
2019-04-27T20:53:14.286Z,10.21
2019-04-27T20:55:43.359Z,10.20
2019-04-27T20:58:12.744Z,10.15
2019-04-27T21:00:41.936Z,10.14
2019-04-27T21:03:23.340Z,10.10
2019-04-27T21:06:11.198Z,10.11
2019-04-27T21:08:41.269Z,10.06
2019-04-27T21:11:11.858Z,10.01
2019-04-27T21:13:41.038Z,10.02
2019-04-27T21:16:10.730Z,10.04
2019-04-27T21:18:41.965Z,10.06
2019-04-27T21:21:11.471Z,10.03
2019-04-27T21:23:41.403Z,10.03
2019-04-27T21:26:10.614Z,10.04
2019-04-27T21:28:41.558Z,10.06
2019-04-27T21:31:12.450Z,10.07
2019-04-27T21:33:41.272Z,10.08
2019-04-27T21:36:11.711Z,10.07
2019-04-27T21:38:42.803Z,10.10
2019-04-27T21:41:11.779Z,10.14
2019-04-27T21:43:42.108Z,10.09
2019-04-27T21:46:11.700Z,10.07
2019-04-27T21:48:41.514Z,10.06
2019-04-27T21:51:11.863Z,10.05
2019-04-27T21:54:00.000Z,10.01
2019-04-27T21:56:29.096Z,10.00
2019-04-27T21:58:58.164Z,10.01
2019-04-27T22:01:35.231Z,10.03
2019-04-27T22:04:04.526Z,10.06
2019-04-27T22:06:33.625Z,10.08
2019-04-27T22:09:02.692Z,10.09
2019-04-27T22:11:32.026Z,10.14
2019-04-27T22:14:01.420Z,10.15
2019-04-27T22:16:31.499Z,10.17
2019-04-27T22:19:01.963Z,10.19
2019-04-27T22:21:31.661Z,10.22
2019-04-27T22:24:22.663Z,10.22
2019-04-27T22:26:51.945Z,10.21
2019-04-27T22:29:22.193Z,10.20
2019-04-27T22:31:51.761Z,10.19
2019-04-27T22:34:21.662Z,10.20
2019-04-27T22:36:50.759Z,10.19
2019-04-27T22:39:31.477Z,10.17
2019-04-27T22:42:18.323Z,10.17
2019-04-27T22:44:52.483Z,10.16
2019-04-27T22:47:21.660Z,10.16
2019-04-27T22:49:50.734Z,10.15
2019-04-27T22:52:21.763Z,10.10
2019-04-27T22:54:51.362Z,10.08
2019-04-27T22:57:32.247Z,10.06
2019-04-27T23:00:21.985Z,10.04
2019-04-27T23:02:53.925Z,10.06
2019-04-27T23:05:23.045Z,10.06
2019-04-27T23:07:52.126Z,10.05
2019-04-27T23:10:21.412Z,10.03
2019-04-27T23:12:51.027Z,10.02
2019-04-27T23:15:22.198Z,9.98
2019-04-27T23:17:58.684Z,9.98
2019-04-27T23:20:27.854Z,9.97
2019-04-27T23:22:56.964Z,9.93
2019-04-27T23:25:26.042Z,9.89
2019-04-27T23:27:55.133Z,9.84
2019-04-27T23:30:58.520Z,9.79
2019-04-27T23:33:27.596Z,9.78
2019-04-27T23:35:56.601Z,9.77
2019-04-27T23:38:25.688Z,9.74
2019-04-27T23:40:54.758Z,9.74
2019-04-27T23:43:23.844Z,9.70
2019-04-27T23:45:53.486Z,9.70
2019-04-27T23:48:24.839Z,9.70
2019-04-27T23:50:56.439Z,9.70
2019-04-27T23:53:29.549Z,9.73
2019-04-27T23:55:58.620Z,9.72
2019-04-27T23:58:27.721Z,9.74
